Time;durP1;ratioP1;P1;durP2;ratioP2;P2;SDS_P1;SDS_P2;PMS_P1;PMS_P2;Temp;Humidity;BMP_temperature;BMP_pressure;BME280_temperature;BME280_humidity;BME280_pressure;Samples;Min_cycle;Max_cycle;Signal;HPM_P1;HPM_P2
2023/10/17 00:00:45;;;;;;;3.67;1.63;;;;;;;21.31;50.78;98759.38;4975249;28;20029;-74
2023/10/17 00:02:59;;;;;;;3.83;1.60;;;;;;;21.30;50.91;98762.94;4972163;28;20147;-75
2023/10/17 00:05:26;;;;;;;4.50;1.73;;;;;;;21.34;50.81;98764.44;4973882;28;20055;-74
2023/10/17 00:07:51;;;;;;;4.13;1.60;;;;;;;21.37;50.93;98747.44;4974977;28;20487;-73
2023/10/17 00:10:20;;;;;;;2.95;1.73;;;;;;;21.34;50.83;98753.81;4975431;28;20033;-74
2023/10/17 00:12:51;;;;;;;4.25;1.50;;;;;;;21.32;50.97;98755.75;4974911;28;20077;-74
2023/10/17 00:15:35;;;;;;;3.78;1.60;;;;;;;21.31;51.00;98752.22;4975276;28;20080;-75
2023/10/17 00:18:05;;;;;;;3.20;1.65;;;;;;;21.31;51.22;98759.38;4974984;28;20026;-75
2023/10/17 00:20:37;;;;;;;5.55;1.60;;;;;;;21.31;51.15;98759.38;4975199;28;20097;-75
2023/10/17 00:23:04;;;;;;;3.90;1.45;;;;;;;21.31;51.17;98743.44;4974919;28;20113;-74
2023/10/17 00:25:30;;;;;;;4.93;1.90;;;;;;;21.28;51.18;98744.50;4974851;28;20042;-75
2023/10/17 00:27:57;;;;;;;4.65;1.70;;;;;;;21.27;51.28;98740.16;4974570;28;20034;-74
2023/10/17 00:30:22;;;;;;;3.78;1.73;;;;;;;21.27;51.34;98741.97;4974929;28;20522;-75
2023/10/17 00:32:50;;;;;;;3.92;1.77;;;;;;;21.32;51.28;98745.13;4974521;28;20042;-74
2023/10/17 00:35:18;;;;;;;4.10;2.05;;;;;;;21.30;51.52;98741.72;4974700;28;20019;-74
2023/10/17 00:37:56;;;;;;;4.15;1.83;;;;;;;21.32;51.03;98735.34;4974650;28;20035;-74
2023/10/17 00:40:34;;;;;;;3.42;1.70;;;;;;;21.30;51.46;98739.06;4974637;28;20035;-73
2023/10/17 00:43:06;;;;;;;3.75;1.48;;;;;;;21.28;51.57;98744.50;4974248;28;20025;-75
2023/10/17 00:45:35;;;;;;;4.53;1.60;;;;;;;21.27;51.54;98742.81;4974608;28;20026;-74
2023/10/17 00:48:02;;;;;;;2.85;1.52;;;;;;;21.26;51.85;98734.97;4974442;28;20428;-75
2023/10/17 00:50:29;;;;;;;3.05;1.17;;;;;;;21.30;51.43;98741.72;4974506;28;20031;-74
2023/10/17 00:52:56;;;;;;;3.35;1.50;;;;;;;21.28;51.60;98741.00;4962465;28;20029;-75
2023/10/17 00:55:26;;;;;;;2.80;1.30;;;;;;;21.30;51.55;98736.41;4974025;28;20074;-73
2023/10/17 00:57:53;;;;;;;4.40;1.67;;;;;;;21.29;51.73;98740.03;4974364;28;20027;-75
2023/10/17 01:00:35;;;;;;;3.88;1.45;;;;;;;21.31;51.75;98738.97;4956984;28;20517;-74
2023/10/17 01:03:10;;;;;;;5.03;1.63;;;;;;;21.30;51.70;98725.81;4974260;28;20030;-74
2023/10/17 01:05:57;;;;;;;3.65;1.40;;;;;;;21.28;51.91;98725.94;4972904;28;20027;-75
2023/10/17 01:08:37;;;;;;;3.67;1.70;;;;;;;21.30;51.99;98717.84;4973916;28;20077;-74
2023/10/17 01:11:08;;;;;;;3.65;1.48;;;;;;;21.25;52.29;98707.59;4973956;28;20034;-74
2023/10/17 01:13:38;;;;;;;4.28;1.45;;;;;;;21.30;52.09;98704.56;4973071;28;20537;-74
2023/10/17 01:16:07;;;;;;;4.72;1.50;;;;;;;21.26;52.27;98705.78;4974045;28;20081;-75
2023/10/17 01:18:34;;;;;;;3.47;1.33;;;;;;;21.26;52.24;98700.47;4973492;28;20027;-73
2023/10/17 01:21:00;;;;;;;4.03;1.33;;;;;;;21.28;52.24;98698.53;4973685;28;20023;-74
2023/10/17 01:23:27;;;;;;;4.10;1.45;;;;;;;21.27;52.17;98700.38;4973785;28;20023;-75
2023/10/17 01:25:52;;;;;;;3.10;1.48;;;;;;;21.25;52.20;98685.53;4973372;28;20034;-74
2023/10/17 01:28:17;;;;;;;2.53;1.25;;;;;;;21.25;52.23;98694.31;4973724;28;20033;-75
2023/10/17 01:30:43;;;;;;;2.63;1.23;;;;;;;21.27;52.51;98688.91;4973740;28;20062;-75
2023/10/17 01:33:08;;;;;;;3.03;1.33;;;;;;;21.28;52.41;98677.31;4973673;28;20031;-74
2023/10/17 01:35:33;;;;;;;2.55;1.17;;;;;;;21.29;52.73;98681.66;4973822;28;20023;-74
2023/10/17 01:37:59;;;;;;;3.38;1.27;;;;;;;21.28;52.44;98685.28;4973536;28;20491;-75
2023/10/17 01:40:27;;;;;;;3.80;1.35;;;;;;;21.27;52.40;98684.44;4973198;28;20066;-74
2023/10/17 01:42:54;;;;;;;3.78;1.50;;;;;;;21.25;52.65;98686.34;4973474;28;20034;-75
2023/10/17 01:45:25;;;;;;;3.20;1.48;;;;;;;21.25;52.48;98691.66;4973470;28;20395;-74
2023/10/17 01:47:54;;;;;;;2.80;1.30;;;;;;;21.27;52.58;98694.22;4973658;28;20443;-74
2023/10/17 01:50:20;;;;;;;3.42;1.30;;;;;;;21.26;52.60;98687.22;4973278;28;20023;-74
2023/10/17 01:52:46;;;;;;;2.55;1.00;;;;;;;21.25;52.67;98680.22;4973374;28;20057;-74
2023/10/17 01:55:15;;;;;;;4.97;1.42;;;;;;;21.24;52.50;98678.50;4972897;28;20081;-74
2023/10/17 01:57:43;;;;;;;3.83;1.55;;;;;;;21.23;52.69;98676.81;4973384;28;20034;-74
2023/10/17 02:00:24;;;;;;;3.95;1.48;;;;;;;21.23;52.61;98671.50;4973430;28;20089;-74
2023/10/17 02:02:50;;;;;;;3.88;1.30;;;;;;;21.24;52.47;98666.09;4973417;28;20054;-74
2023/10/17 02:05:16;;;;;;;3.05;1.27;;;;;;;21.24;52.56;98667.88;4973199;28;20031;-75
2023/10/17 02:07:41;;;;;;;3.65;1.30;;;;;;;21.28;52.63;98666.72;4973169;28;20030;-74
2023/10/17 02:10:09;;;;;;;3.55;1.58;;;;;;;21.27;53.01;98662.38;4972932;28;20018;-75
2023/10/17 02:12:35;;;;;;;3.15;1.13;;;;;;;21.24;52.73;98657.28;4973083;28;20110;-75
2023/10/17 02:15:00;;;;;;;3.50;1.63;;;;;;;21.29;52.64;98663.09;4973476;28;20114;-75
2023/10/17 02:17:26;;;;;;;3.53;1.30;;;;;;;21.27;52.39;98659.72;4973209;28;20406;-75
2023/10/17 02:19:53;;;;;;;2.75;1.08;;;;;;;21.27;52.85;98657.06;4973269;28;20023;-74
2023/10/17 02:22:19;;;;;;;2.05;1.10;;;;;;;21.29;52.81;98663.94;4971899;28;20372;-74
2023/10/17 02:24:44;;;;;;;3.72;1.25;;;;;;;21.28;52.51;98656.09;4972632;28;20027;-74
2023/10/17 02:27:12;;;;;;;4.35;1.40;;;;;;;21.25;53.01;98657.16;4973321;28;20027;-74
2023/10/17 02:29:44;;;;;;;2.67;1.25;;;;;;;21.24;53.21;98658.13;4972999;28;20476;-74
2023/10/17 02:32:13;;;;;;;2.45;1.20;;;;;;;21.25;53.08;98656.34;4975903;28;20495;-75
2023/10/17 02:34:39;;;;;;;2.83;1.40;;;;;;;21.27;52.94;98657.06;4977075;28;20058;-75
2023/10/17 02:37:10;;;;;;;3.53;1.20;;;;;;;21.27;52.94;98662.38;4976716;28;20023;-74
2023/10/17 02:39:37;;;;;;;4.57;1.33;;;;;;;21.24;52.89;98654.63;4976854;28;20089;-74
2023/10/17 02:42:09;;;;;;;3.08;1.30;;;;;;;21.25;52.88;98654.50;4976927;28;20018;-74
2023/10/17 02:44:40;;;;;;;3.88;1.48;;;;;;;21.28;53.24;98649.00;4976797;28;20110;-74
2023/10/17 02:47:11;;;;;;;2.78;1.30;;;;;;;21.27;53.41;98647.31;4976775;28;20027;-74
2023/10/17 02:49:37;;;;;;;4.13;1.50;;;;;;;21.28;53.58;98640.16;4976843;28;20085;-74
2023/10/17 02:52:05;;;;;;;3.60;1.40;;;;;;;21.26;53.52;98645.59;4976186;28;20043;-74
2023/10/17 02:54:34;;;;;;;3.28;1.30;;;;;;;21.25;53.65;98643.06;4976508;28;20483;-75
2023/10/17 02:56:59;;;;;;;2.28;1.23;;;;;;;21.29;53.69;98633.91;4976655;28;20398;-74
2023/10/17 02:59:25;;;;;;;2.28;1.25;;;;;;;21.26;53.48;98634.16;4976536;28;20042;-74
2023/10/17 03:01:53;;;;;;;3.30;1.50;;;;;;;21.25;53.33;98627.16;4976499;28;20395;-75
2023/10/17 03:04:23;;;;;;;2.63;1.13;;;;;;;21.23;53.37;98629.91;4976385;28;20113;-73
2023/10/17 03:06:53;;;;;;;4.03;1.30;;;;;;;21.24;53.26;98630.75;4976035;28;20576;-74
2023/10/17 03:17:02;;;;;;;2.83;1.30;;;;;;;21.19;53.35;98624.00;4976160;28;20031;-75
2023/10/17 03:19:27;;;;;;;2.67;1.20;;;;;;;21.22;53.22;98628.22;4976083;28;20031;-74
2023/10/17 03:22:16;;;;;;;3.65;1.55;;;;;;;21.19;53.11;98628.44;4975677;28;20079;-74
2023/10/17 03:24:49;;;;;;;2.47;1.27;;;;;;;21.19;53.36;98618.69;4976067;28;20041;-75
2023/10/17 03:27:34;;;;;;;2.92;1.38;;;;;;;21.19;53.21;98624.00;4976108;28;20027;-74
2023/10/17 03:30:11;;;;;;;2.30;1.15;;;;;;;21.21;53.05;98623.03;4976069;28;20034;-75
2023/10/17 03:32:52;;;;;;;;;;;;;;;21.19;53.48;98618.69;4976322;28;20054;-74
2023/10/17 03:35:20;;;;;;;2.78;1.15;;;;;;;21.23;53.01;98616.66;4974243;28;19921;-75
2023/10/17 03:37:46;;;;;;;3.33;1.42;;;;;;;21.25;53.07;98611.25;4975593;28;20562;-74
2023/10/17 03:42:55;;;;;;;2.47;1.17;;;;;;;21.25;53.14;98611.25;4975031;28;20460;-74
2023/10/17 03:47:53;;;;;;;2.80;1.13;;;;;;;21.26;53.75;98619.06;4975825;28;20113;-74
2023/10/17 03:50:31;;;;;;;3.17;1.08;;;;;;;21.31;53.27;98608.13;4975263;28;20109;-74
2023/10/17 03:53:04;;;;;;;3.10;1.20;;;;;;;21.29;53.29;98604.72;4975641;28;20031;-74
2023/10/17 03:55:31;;;;;;;2.83;1.02;;;;;;;21.31;53.41;98605.47;4975355;28;20055;-74
2023/10/17 03:57:59;;;;;;;2.35;0.90;;;;;;;21.32;53.69;98597.38;4975456;28;20030;-74
2023/10/17 04:00:27;;;;;;;2.63;1.10;;;;;;;21.36;53.60;98597.97;4975417;28;20054;-74
2023/10/17 04:02:53;;;;;;;3.47;1.30;;;;;;;21.35;54.07;98596.28;4975375;28;20035;-74
2023/10/17 04:05:22;;;;;;;2.60;1.13;;;;;;;21.32;53.75;98594.72;4957566;28;20046;-74
2023/10/17 04:07:51;;;;;;;2.38;0.80;;;;;;;21.31;54.15;98594.84;4975234;28;20042;-74
2023/10/17 04:10:20;;;;;;;2.65;1.13;;;;;;;21.30;54.01;98587.81;4975224;28;20398;-74
2023/10/17 04:12:49;;;;;;;2.85;1.13;;;;;;;21.34;54.11;98597.25;4975240;28;20038;-74
2023/10/17 04:15:18;;;;;;;1.73;0.98;;;;;;;21.38;54.34;98601.38;4974994;28;20554;-74
2023/10/17 04:17:46;;;;;;;2.63;1.08;;;;;;;21.37;54.31;98599.69;4975159;28;20026;-74
2023/10/17 04:20:12;;;;;;;2.47;1.10;;;;;;;21.37;54.27;98594.38;4974682;28;20026;-75
2023/10/17 04:22:38;;;;;;;3.17;1.20;;;;;;;21.33;54.82;98592.91;4975003;28;20446;-74
2023/10/17 04:25:20;;;;;;;5.03;1.25;;;;;;;21.35;54.63;98582.19;4974985;28;20039;-73
2023/10/17 04:27:54;;;;;;;2.08;0.95;;;;;;;21.33;54.41;98587.59;4974897;28;20031;-74
2023/10/17 04:30:29;;;;;;;3.78;1.60;;;;;;;21.28;54.78;98579.16;4974559;28;20077;-74
2023/10/17 04:33:05;;;;;;;1.98;0.95;;;;;;;21.29;54.67;98586.13;4973178;28;20031;-74
2023/10/17 04:35:32;;;;;;;;;;;;;;;21.29;54.78;98592.31;4975011;28;20479;-74
2023/10/17 04:44:03;;;;;;;4.95;1.10;;;;;;;21.32;54.78;98596.53;4840356;29;20042;-74
2023/10/17 04:46:29;;;;;;;3.72;1.42;;;;;;;21.30;55.04;98595.78;4840282;29;20582;-74
2023/10/17 04:49:06;;;;;;;3.28;1.33;;;;;;;21.30;55.05;98598.44;4839933;29;20046;-73
2023/10/17 04:51:38;;;;;;;4.53;1.30;;;;;;;21.30;55.05;98577.22;4850306;29;20053;-74
2023/10/17 04:57:00;;;;;;;4.00;1.45;;;;;;;21.40;54.78;98599.44;4862925;29;20045;-74
2023/10/17 06:18:57;;;;;;;2.42;0.90;;;;;;;21.40;56.12;98572.91;4913906;29;20039;-77
2023/10/17 06:21:36;;;;;;;1.73;0.70;;;;;;;21.42;56.15;98581.59;4913655;29;20068;-77
2023/10/17 06:26:02;;;;;;;1.85;0.70;;;;;;;21.41;56.05;98574.59;4899710;29;20033;-77
2023/10/17 06:26:59;;;;;;;1.65;0.70;;;;;;;21.41;56.55;98566.63;4889672;29;20050;-77
2023/10/17 06:34:23;;;;;;;1.90;0.88;;;;;;;21.44;56.62;98557.56;4947973;28;20039;-77
2023/10/17 06:36:50;;;;;;;1.83;0.70;;;;;;;21.45;56.44;98559.25;4973310;28;20078;-77
2023/10/17 06:39:18;;;;;;;1.88;0.90;;;;;;;21.47;56.60;98557.34;4973381;28;20027;-77
2023/10/17 06:41:47;;;;;;;2.22;0.90;;;;;;;21.44;56.56;98568.19;4973363;28;20034;-77
2023/10/17 06:44:21;;;;;;;1.88;0.85;;;;;;;21.45;56.61;98570.75;4972630;28;20023;-77
2023/10/17 06:49:55;;;;;;;1.23;0.57;;;;;;;21.47;56.36;98567.97;4973361;28;20033;-77
2023/10/17 06:54:41;;;;;;;1.77;0.90;;;;;;;21.50;56.75;98573.03;4973121;28;20053;-78
2023/10/17 06:57:19;;;;;;;3.58;0.90;;;;;;;21.51;56.36;98573.88;4972786;28;20352;-77
2023/10/17 06:59:52;;;;;;;1.30;0.75;;;;;;;21.50;56.04;98566.88;4972793;28;20033;-77
2023/10/17 07:02:31;;;;;;;1.77;0.80;;;;;;;21.49;56.03;98570.50;4973095;28;20023;-77
2023/10/17 07:05:00;;;;;;;2.10;0.95;;;;;;;21.49;55.73;98567.88;4972767;28;20039;-78
2023/10/17 07:07:39;;;;;;;2.28;0.70;;;;;;;21.52;55.96;98578.22;4972852;28;20027;-77
2023/10/17 07:10:37;;;;;;;2.80;0.90;;;;;;;21.48;55.71;98582.06;4973006;28;20066;-77
2023/10/17 07:13:41;;;;;;;1.73;0.60;;;;;;;21.51;55.92;98584.50;4972606;28;20518;-77
2023/10/17 07:16:16;;;;;;;2.80;0.80;;;;;;;21.49;55.91;98584.63;4972780;28;20430;-77
2023/10/17 07:18:45;;;;;;;1.88;0.80;;;;;;;21.46;56.21;98587.53;4976036;28;20031;-77
2023/10/17 07:23:43;;;;;;;1.52;0.82;;;;;;;21.46;56.54;98583.03;4976506;28;20034;-77
2023/10/17 07:26:24;;;;;;;1.58;0.68;;;;;;;21.50;56.61;98588.13;4976127;28;20054;-76
2023/10/17 07:28:52;;;;;;;2.25;0.70;;;;;;;21.51;56.13;98580.06;4975810;28;20090;-77
2023/10/17 07:31:20;;;;;;;1.23;0.80;;;;;;;21.49;56.28;98581.13;4976205;28;20026;-77
2023/10/17 07:33:47;;;;;;;2.50;0.80;;;;;;;21.48;56.25;98584.72;4975987;28;20105;-77
2023/10/17 07:36:18;;;;;;;1.00;0.50;;;;;;;21.45;56.65;98581.34;4976124;28;20112;-78
2023/10/17 07:38:44;;;;;;;3.38;0.93;;;;;;;21.43;56.64;98587.75;4976003;28;20031;-77
2023/10/17 07:41:14;;;;;;;1.95;0.80;;;;;;;21.42;56.83;98600.19;4975769;28;20098;-77
2023/10/17 07:43:46;;;;;;;2.65;0.90;;;;;;;21.44;55.95;98606.22;4975825;28;20089;-77
2023/10/17 07:46:19;;;;;;;3.17;0.95;;;;;;;21.44;56.96;98605.34;4958321;28;20038;-77
2023/10/17 07:48:50;;;;;;;1.25;0.93;;;;;;;21.45;56.26;98602.59;4975766;28;20031;-76
2023/10/17 07:51:16;;;;;;;1.52;0.70;;;;;;;21.46;55.84;98596.31;4975661;28;20038;-78
2023/10/17 07:53:45;;;;;;;2.15;0.70;;;;;;;21.47;56.53;98597.16;4975594;28;20055;-77
2023/10/17 07:56:20;;;;;;;1.45;0.70;;;;;;;21.51;55.90;98611.03;4975220;28;20888;-77
2023/10/17 07:58:46;;;;;;;2.28;0.90;;;;;;;21.52;55.76;98604.78;4975548;28;20035;-77
2023/10/17 08:01:15;;;;;;;1.77;0.90;;;;;;;21.53;55.76;98614.41;4975755;28;20035;-77
2023/10/17 08:03:49;;;;;;;2.70;1.00;;;;;;;21.56;55.68;98616.84;4958201;28;20070;-78
2023/10/17 08:06:20;;;;;;;3.40;0.73;;;;;;;21.57;55.22;98605.25;4975551;28;20063;-77
2023/10/17 08:08:46;;;;;;;2.63;0.85;;;;;;;21.56;55.54;98616.84;4975338;28;20042;-77
2023/10/17 08:11:26;;;;;;;1.35;0.80;;;;;;;21.60;55.41;98610.34;4974927;28;20030;-76
2023/10/17 08:13:55;;;;;;;1.60;0.70;;;;;;;21.62;55.66;98612.84;4975490;28;20051;-77
2023/10/17 08:16:24;;;;;;;1.40;0.85;;;;;;;21.60;55.47;98599.72;4974700;28;20034;-78
2023/10/17 08:18:58;;;;;;;2.78;1.02;;;;;;;21.62;55.34;98604.91;4975432;28;20027;-77
2023/10/17 08:21:35;;;;;;;1.98;0.90;;;;;;;21.64;55.06;98598.50;4975392;28;20155;-77
2023/10/17 08:24:01;;;;;;;2.47;0.90;;;;;;;21.66;55.20;98590.44;4975201;28;20107;-77
2023/10/17 08:26:31;;;;;;;2.85;1.05;;;;;;;21.65;55.04;98589.56;4957598;28;20466;-77
2023/10/17 08:28:57;;;;;;;2.47;0.90;;;;;;;21.67;54.97;98590.31;4975011;28;20094;-77
2023/10/17 08:31:23;;;;;;;1.60;0.65;;;;;;;21.66;55.33;98588.63;4974974;28;20356;-76
2023/10/17 08:36:47;;;;;;;2.67;0.88;;;;;;;21.71;55.06;98598.91;4974994;28;20105;-77
2023/10/17 08:42:05;;;;;;;2.13;0.98;;;;;;;21.73;54.88;98589.88;4974799;28;20030;-76
2023/10/17 08:44:33;;;;;;;;;;;;;;;21.74;54.73;98590.69;4975212;28;20077;-78
2023/10/17 08:46:59;;;;;;;2.28;1.00;;;;;;;21.76;54.64;98599.41;4974938;28;20009;-77
2023/10/17 08:49:27;;;;;;;1.55;0.82;;;;;;;21.75;54.93;98576.47;4974870;28;20023;-77
2023/10/17 08:51:56;;;;;;;2.88;1.45;;;;;;;21.76;54.73;98585.28;4974570;28;20130;-77
2023/10/17 08:54:32;;;;;;;3.03;1.10;;;;;;;21.77;54.96;98589.63;4974301;28;20054;-78
2023/10/17 08:57:03;;;;;;;3.42;1.17;;;;;;;21.79;54.71;98599.16;4974519;28;20038;-76
2023/10/17 09:04:53;;;;;;;3.25;1.10;;;;;;;21.79;54.84;98590.34;4974485;28;20091;-77
2023/10/17 09:07:32;;;;;;;2.45;1.00;;;;;;;21.79;54.75;98595.66;4974794;28;20050;-77
2023/10/17 09:10:07;;;;;;;4.10;1.25;;;;;;;21.80;54.64;98589.38;4974059;28;20026;-78
2023/10/17 09:15:39;;;;;;;3.22;1.00;;;;;;;21.82;55.00;98571.50;4974202;28;20097;-78
2023/10/17 09:18:08;;;;;;;4.72;1.30;;;;;;;21.84;54.78;98569.59;4974186;28;20073;-77
2023/10/17 09:20:39;;;;;;;4.13;1.27;;;;;;;21.84;54.78;98569.59;4974192;28;20023;-78
2023/10/17 09:23:24;;;;;;;2.65;1.10;;;;;;;21.84;54.97;98572.25;4973801;28;20026;-77
2023/10/17 09:25:59;;;;;;;3.10;1.00;;;;;;;21.84;54.97;98564.28;4974205;28;20097;-78
2023/10/17 09:28:25;;;;;;;4.28;1.25;;;;;;;21.84;54.73;98569.59;4973885;28;20038;-77
2023/10/17 09:31:09;;;;;;;3.35;1.20;;;;;;;21.86;54.74;98572.97;4974115;28;20476;-78
2023/10/17 09:33:43;;;;;;;3.35;1.20;;;;;;;21.87;54.66;98561.38;4973825;28;20574;-77
2023/10/17 09:36:09;;;;;;;3.28;1.10;;;;;;;21.86;54.83;98572.97;4974079;28;20042;-77
2023/10/17 09:38:41;;;;;;;4.43;1.70;;;;;;;21.87;54.91;98569.34;4973390;28;20035;-77
2023/10/17 09:41:08;;;;;;;3.83;1.00;;;;;;;21.88;54.65;98570.19;4973464;28;20031;-77
2023/10/17 09:43:36;;;;;;;3.28;1.17;;;;;;;21.88;54.99;98562.22;4973832;28;20455;-77
2023/10/17 09:46:02;;;;;;;4.05;1.15;;;;;;;21.88;54.62;98565.72;4973590;28;20046;-77
2023/10/17 09:48:36;;;;;;;4.32;1.45;;;;;;;21.89;54.76;98556.78;4973895;28;20062;-77
2023/10/17 09:51:03;;;;;;;2.42;1.15;;;;;;;21.90;54.80;98555.84;4973458;28;20057;-77
2023/10/17 09:53:34;;;;;;;4.85;1.38;;;;;;;21.91;54.77;98557.53;4973277;28;20235;-77
2023/10/17 09:56:10;;;;;;;2.78;1.10;;;;;;;21.91;54.69;98565.50;4973579;28;20022;-77
2023/10/17 09:58:40;;;;;;;3.63;1.38;;;;;;;21.92;54.72;98556.56;4956168;28;20399;-77
2023/10/17 10:01:17;;;;;;;4.78;1.30;;;;;;;21.93;54.79;98568.84;4973633;28;20027;-77
2023/10/17 10:03:45;;;;;;;3.53;1.27;;;;;;;21.94;54.63;98570.53;4973311;28;20033;-77
2023/10/17 10:06:32;;;;;;;4.78;1.20;;;;;;;21.96;54.96;98554.50;4973282;28;20053;-77
2023/10/17 10:09:09;;;;;;;3.38;1.23;;;;;;;21.96;54.65;98557.16;4973334;28;20023;-77
2023/10/17 10:11:53;;;;;;;2.20;1.10;;;;;;;21.96;54.83;98547.38;4973336;28;20058;-77
2023/10/17 10:14:21;;;;;;;3.92;1.17;;;;;;;21.97;54.64;98548.19;4972397;28;20035;-77
2023/10/17 10:16:55;;;;;;;3.72;1.20;;;;;;;21.98;54.46;98550.75;4956073;28;20030;-76
2023/10/17 10:19:27;;;;;;;3.45;1.30;;;;;;;21.98;54.87;98537.47;4973592;28;20026;-77
2023/10/17 10:22:02;;;;;;;3.22;1.00;;;;;;;21.98;54.25;98540.13;4973019;28;20426;-77
2023/10/17 10:24:31;;;;;;;4.45;1.38;;;;;;;22.00;54.64;98547.97;4973414;28;20023;-76
2023/10/17 10:27:24;;;;;;;4.05;1.15;;;;;;;22.02;54.42;98543.38;4973277;28;20027;-77
2023/10/17 10:29:53;;;;;;;3.50;1.38;;;;;;;22.03;54.59;98546.88;4973219;28;20015;-77
2023/10/17 10:32:24;;;;;;;4.85;1.27;;;;;;;22.04;54.58;98569.81;4973268;28;20384;-76
2023/10/17 10:34:50;;;;;;;5.90;1.60;;;;;;;22.05;54.44;98544.94;4972978;28;20031;-77
2023/10/17 10:37:16;;;;;;;4.75;1.75;;;;;;;22.05;54.44;98558.22;4972856;28;20027;-77
2023/10/17 10:40:12;;;;;;;4.15;1.48;;;;;;;22.05;54.87;98545.78;4973298;28;20030;-77
2023/10/17 10:42:45;;;;;;;6.05;1.67;;;;;;;22.07;54.55;98550.97;4973207;28;20045;-77
2023/10/17 10:45:40;;;;;;;3.70;1.38;;;;;;;22.08;54.73;98550.84;4973095;28;20512;-77
2023/10/17 10:48:17;;;;;;;4.45;1.55;;;;;;;22.10;54.69;98554.25;4972981;28;20031;-77
2023/10/17 10:50:55;;;;;;;4.32;1.50;;;;;;;22.08;54.90;98555.34;4972680;28;20093;-77
2023/10/17 10:53:20;;;;;;;5.35;1.88;;;;;;;22.10;54.70;98535.66;4975957;28;20484;-77
2023/10/17 10:55:53;;;;;;;3.70;1.40;;;;;;;22.12;54.71;98540.81;4976938;28;20050;-76
2023/10/17 10:58:18;;;;;;;5.15;1.95;;;;;;;22.13;54.19;98538.03;4976369;28;20038;-77
2023/10/17 11:00:44;;;;;;;3.88;1.40;;;;;;;22.15;54.10;98529.09;4976719;28;20097;-77
2023/10/17 11:03:10;;;;;;;4.22;1.20;;;;;;;22.17;54.00;98543.94;4976736;28;20031;-76
2023/10/17 11:05:53;;;;;;;5.20;1.80;;;;;;;22.17;54.13;98533.31;4976231;28;20038;-77
2023/10/17 11:08:21;;;;;;;4.65;1.58;;;;;;;22.19;54.02;98536.72;4976181;28;20034;-77
2023/10/17 11:10:46;;;;;;;4.40;1.38;;;;;;;22.19;54.48;98542.03;4961523;28;20022;-76
2023/10/17 11:13:12;;;;;;;6.00;1.88;;;;;;;22.20;54.93;98522.47;4976451;28;20029;-77
2023/10/17 11:15:44;;;;;;;5.63;1.65;;;;;;;22.20;54.27;98549.03;4976360;28;20023;-77
2023/10/17 11:18:11;;;;;;;5.45;1.60;;;;;;;22.21;54.47;98526.81;4976190;28;20027;-76
2023/10/17 11:20:40;;;;;;;5.35;1.52;;;;;;;22.22;54.74;98525.81;4975842;28;20019;-78
2023/10/17 11:23:13;;;;;;;5.80;1.55;;;;;;;22.22;54.35;98504.56;4976101;28;20026;-77
2023/10/17 11:25:45;;;;;;;4.35;1.67;;;;;;;22.24;54.67;98523.06;4975947;28;20529;-77
2023/10/17 11:28:11;;;;;;;7.43;2.10;;;;;;;22.24;54.18;98517.75;4976139;28;20054;-77
2023/10/17 11:30:40;;;;;;;5.93;1.75;;;;;;;22.25;54.57;98520.28;4976197;28;20510;-77
2023/10/17 11:33:10;;;;;;;6.72;1.58;;;;;;;22.26;54.46;98510.47;4976180;28;20468;-77
2023/10/17 11:35:37;;;;;;;6.30;1.95;;;;;;;22.27;54.34;98518.34;4974487;28;20027;-76
2023/10/17 11:38:03;;;;;;;4.30;1.67;;;;;;;22.29;54.58;98509.38;4975961;28;20019;-77
2023/10/17 11:40:54;;;;;;;6.32;1.70;;;;;;;22.30;54.36;98516.38;4976016;28;20049;-77
2023/10/17 11:43:28;;;;;;;7.35;2.00;;;;;;;22.30;54.03;98497.78;4975773;28;20483;-78
2023/10/17 11:45:53;;;;;;;5.95;1.80;;;;;;;22.32;54.79;98487.88;4975971;28;20039;-77
2023/10/17 11:48:33;;;;;;;6.00;1.45;;;;;;;22.32;54.47;98490.53;4975534;28;20034;-77
2023/10/17 11:51:14;;;;;;;5.13;1.95;;;;;;;22.34;54.24;98485.94;4975641;28;20154;-77
2023/10/17 11:54:04;;;;;;;4.90;1.80;;;;;;;22.34;54.40;98475.31;4975641;28;20070;-76
2023/10/17 11:56:32;;;;;;;5.68;2.00;;;;;;;22.36;53.77;98468.03;4975452;28;20530;-78
2023/10/17 11:58:58;;;;;;;4.72;1.75;;;;;;;22.36;54.51;98468.03;4958162;28;20078;-77
2023/10/17 12:01:24;;;;;;;4.97;1.70;;;;;;;22.37;54.04;98449.31;4975576;28;20023;-76
2023/10/17 12:03:59;;;;;;;5.72;1.80;;;;;;;22.37;54.51;98435.19;4974957;28;20110;-77
2023/10/17 12:06:28;;;;;;;4.53;1.80;;;;;;;22.39;54.43;98443.88;4975271;28;20360;-77
2023/10/17 12:08:57;;;;;;;4.93;1.73;;;;;;;22.38;54.36;98445.69;4975350;28;20031;-78
2023/10/17 12:11:24;;;;;;;5.15;1.90;;;;;;;22.41;54.25;98439.25;4975309;28;20038;-77
2023/10/17 12:13:53;;;;;;;6.25;2.08;;;;;;;22.43;54.01;98450.63;4975505;28;20073;-77
2023/10/17 12:16:23;;;;;;;6.65;1.90;;;;;;;22.43;54.38;98436.50;4975385;28;20073;-77
2023/10/17 12:18:49;;;;;;;4.28;1.58;;;;;;;22.44;54.11;98439.03;4974866;28;20023;-77
2023/10/17 12:21:14;;;;;;;4.85;1.83;;;;;;;22.45;54.46;98435.38;4974097;28;20030;-77
2023/10/17 12:23:41;;;;;;;6.95;2.13;;;;;;;22.46;54.10;98421.13;4975214;28;20062;-77
2023/10/17 12:26:19;;;;;;;5.03;1.63;;;;;;;22.47;54.19;98444.06;4975065;28;20031;-77
2023/10/17 12:28:46;;;;;;;6.82;2.03;;;;;;;22.48;54.38;98423.66;4974896;28;20031;-77
2023/10/17 12:31:16;;;;;;;8.20;2.00;;;;;;;22.49;54.86;98431.50;4974803;28;20037;-77
2023/10/17 12:33:42;;;;;;;5.88;1.85;;;;;;;22.49;54.80;98422.69;4974680;28;20451;-77
2023/10/17 12:36:07;;;;;;;6.57;2.22;;;;;;;22.50;54.30;98419.03;4975003;28;20030;-78
2023/10/17 12:38:36;;;;;;;5.97;1.90;;;;;;;22.51;54.09;98418.94;4974735;28;20027;-77
2023/10/17 12:41:06;;;;;;;5.90;2.08;;;;;;;22.52;54.83;98425.13;4974775;28;20534;-77
2023/10/17 12:43:33;;;;;;;6.28;2.05;;;;;;;22.52;53.94;98415.31;4974633;28;20505;-77
2023/10/17 12:45:58;;;;;;;6.95;2.00;;;;;;;22.53;54.30;98410.88;4974351;28;20030;-77
2023/10/17 12:48:24;;;;;;;6.32;1.92;;;;;;;22.54;54.05;98396.59;4974305;28;20475;-75
2023/10/17 12:50:49;;;;;;;5.57;2.08;;;;;;;22.55;54.20;98397.44;4974355;28;20676;-75
2023/10/17 12:53:14;;;;;;;5.35;2.05;;;;;;;22.56;53.98;98394.63;4974472;28;20065;-75
2023/10/17 12:55:43;;;;;;;6.80;1.77;;;;;;;22.57;54.25;98395.50;4952433;28;20046;-76
2023/10/17 12:58:10;;;;;;;6.22;2.05;;;;;;;22.59;54.27;98388.22;4946208;28;20034;-75
2023/10/17 13:00:40;;;;;;;5.00;1.88;;;;;;;22.58;54.42;98384.72;4960022;28;20031;-75
2023/10/17 13:03:06;;;;;;;5.68;1.80;;;;;;;22.60;54.39;98389.91;4961175;28;20055;-75
2023/10/17 13:05:32;;;;;;;5.95;1.50;;;;;;;22.60;54.38;98387.25;4962168;28;20030;-76
2023/10/17 13:07:57;;;;;;;4.72;1.52;;;;;;;22.61;54.46;98394.25;4962075;28;20040;-74
2023/10/17 13:10:23;;;;;;;5.00;1.85;;;;;;;22.62;54.05;98366.69;4967221;28;20026;-74
2023/10/17 13:12:48;;;;;;;4.50;1.80;;;;;;;22.62;54.31;98366.69;4960068;28;20015;-75
2023/10/17 13:15:17;;;;;;;7.85;2.22;;;;;;;22.64;54.06;98380.69;4958674;28;20038;-74
2023/10/17 13:17:44;;;;;;;6.38;1.95;;;;;;;22.66;54.28;98386.72;4965570;28;20435;-73
2023/10/17 13:20:10;;;;;;;6.13;1.85;;;;;;;22.67;54.37;98391.09;4964549;28;20030;-73
2023/10/17 13:22:41;;;;;;;5.53;1.80;;;;;;;22.66;54.70;98376.06;4968057;28;20475;-74
2023/10/17 13:25:10;;;;;;;5.72;1.95;;;;;;;22.69;54.37;98386.47;4960469;28;20042;-74
2023/10/17 13:27:37;;;;;;;6.53;1.92;;;;;;;22.69;54.73;98385.63;4968336;28;20031;-73
2023/10/17 13:30:04;;;;;;;4.43;1.60;;;;;;;22.69;54.47;98383.81;4953549;28;20031;-75
2023/10/17 13:32:31;;;;;;;5.72;1.95;;;;;;;22.69;54.94;98394.44;4957585;28;20539;-73
2023/10/17 13:34:57;;;;;;;7.57;2.25;;;;;;;22.72;54.56;98372.94;4968412;28;20034;-74
2023/10/17 13:37:22;;;;;;;6.20;2.00;;;;;;;22.71;54.52;98381.84;4966670;28;20019;-72
2023/10/17 13:39:48;;;;;;;6.63;1.95;;;;;;;22.72;54.39;98375.59;4962505;28;20054;-72
2023/10/17 13:42:13;;;;;;;5.93;1.88;;;;;;;22.74;55.30;98376.28;4965230;28;20517;-74
2023/10/17 13:44:38;;;;;;;6.05;1.98;;;;;;;22.74;54.75;98376.28;4963397;28;20110;-73
2023/10/17 13:47:07;;;;;;;6.95;2.05;;;;;;;22.74;54.95;98381.59;4965100;28;20110;-73
2023/10/17 13:49:34;;;;;;;5.75;2.13;;;;;;;22.74;54.71;98373.63;4960551;28;20038;-73
2023/10/17 13:51:59;;;;;;;7.10;2.35;;;;;;;22.77;54.69;98369.88;4972563;28;20065;-74
2023/10/17 13:54:27;;;;;;;5.80;2.15;;;;;;;22.78;54.86;98377.72;4973252;28;20026;-74
2023/10/17 13:56:54;;;;;;;7.05;1.92;;;;;;;22.77;54.27;98370.69;4973062;28;20487;-73